Time;durP1;ratioP1;P1;durP2;ratioP2;P2;SDS_P1;SDS_P2;PMS_P1;PMS_P2;Temp;Humidity;BMP_temperature;BMP_pressure;BME280_temperature;BME280_humidity;BME280_pressure;Samples;Min_cycle;Max_cycle;Signal;HPM_P1;HPM_P2
2021/07/30 00:00:35;;;;;;;0.98;0.90;;;16.00;99.90;;;;;;4979839;28;20070;-67
2021/07/30 00:03:02;;;;;;;3.47;1.42;;;15.90;99.90;;;;;;4967393;28;20058;-65
2021/07/30 00:05:29;;;;;;;3.47;0.80;;;15.80;99.90;;;;;;4979387;28;20109;-65
2021/07/30 00:07:56;;;;;;;2.90;0.80;;;15.80;99.90;;;;;;4981229;28;20042;-71
2021/07/30 00:10:23;;;;;;;3.58;1.25;;;15.80;99.90;;;;;;4979996;28;20117;-68
2021/07/30 00:12:55;;;;;;;2.25;1.20;;;15.90;99.90;;;;;;4980880;28;20122;-66
2021/07/30 00:15:23;;;;;;;2.25;1.33;;;15.90;99.90;;;;;;4981056;28;20042;-65
2021/07/30 00:17:51;;;;;;;3.33;1.05;;;15.90;99.90;;;;;;4982631;28;20421;-67
2021/07/30 00:20:18;;;;;;;2.03;1.17;;;15.90;99.90;;;;;;4981260;28;20097;-68
2021/07/30 00:22:45;;;;;;;3.63;1.45;;;16.00;99.90;;;;;;4972762;28;20140;-65
2021/07/30 00:25:12;;;;;;;3.85;1.40;;;16.10;99.90;;;;;;4983985;28;20510;-64
2021/07/30 00:27:39;;;;;;;1.88;1.30;;;16.10;99.90;;;;;;4986202;28;20042;-68
2021/07/30 00:30:07;;;;;;;3.70;1.40;;;16.20;99.90;;;;;;4966934;28;20142;-66
2021/07/30 00:32:34;;;;;;;3.50;1.63;;;16.20;99.90;;;;;;4985943;28;20050;-66
2021/07/30 00:35:01;;;;;;;3.65;1.13;;;16.20;99.90;;;;;;4982800;28;20121;-65
2021/07/30 00:37:28;;;;;;;3.63;1.50;;;16.30;99.90;;;;;;4985297;28;20093;-66
2021/07/30 00:39:55;;;;;;;3.08;1.45;;;16.20;99.90;;;;;;4982628;28;20046;-65
2021/07/30 00:42:22;;;;;;;3.15;2.08;;;16.30;99.90;;;;;;4982319;28;20120;-65
2021/07/30 00:44:49;;;;;;;2.38;1.55;;;16.30;99.90;;;;;;4975025;28;20100;-65
2021/07/30 00:47:16;;;;;;;6.03;1.73;;;16.30;99.90;;;;;;4986955;28;20105;-67
2021/07/30 00:49:43;;;;;;;18.15;2.92;;;16.30;99.90;;;;;;4972007;28;20354;-68
2021/07/30 00:52:10;;;;;;;4.38;2.03;;;16.30;99.90;;;;;;4981870;28;20419;-65
2021/07/30 00:54:37;;;;;;;5.93;1.35;;;16.40;99.90;;;;;;4983154;28;20046;-68
2021/07/30 00:57:06;;;;;;;6.00;1.92;;;16.40;99.90;;;;;;4982979;28;20058;-66
2021/07/30 00:59:33;;;;;;;6.13;1.52;;;16.40;99.90;;;;;;4982628;28;20058;-67
2021/07/30 01:02:00;;;;;;;5.03;2.00;;;16.40;99.90;;;;;;4986114;28;20180;-65
2021/07/30 01:04:27;;;;;;;2.83;2.45;;;16.40;99.90;;;;;;4982955;28;20132;-66
2021/07/30 01:06:54;;;;;;;5.20;2.28;;;16.40;99.90;;;;;;4984633;28;20691;-65
2021/07/30 01:09:22;;;;;;;4.78;1.90;;;16.40;99.90;;;;;;4984957;28;20049;-67
2021/07/30 01:11:50;;;;;;;2.47;2.05;;;16.40;99.90;;;;;;4984698;28;20054;-66
2021/07/30 01:14:17;;;;;;;3.33;1.98;;;16.40;99.90;;;;;;4982454;28;20054;-64
2021/07/30 01:16:44;;;;;;;4.47;2.72;;;16.40;99.90;;;;;;4981175;28;20365;-68
2021/07/30 01:19:21;;;;;;;4.57;1.83;;;16.40;99.90;;;;;;4985917;28;20046;-67
2021/07/30 01:21:55;;;;;;;4.60;2.17;;;16.40;99.90;;;;;;4981906;28;20090;-66
2021/07/30 01:24:26;;;;;;;4.90;2.17;;;16.50;99.90;;;;;;4980525;28;20042;-65
2021/07/30 01:26:53;;;;;;;4.03;2.28;;;16.50;99.90;;;;;;4984210;28;20459;-64
2021/07/30 01:29:21;;;;;;;3.80;2.05;;;16.50;99.90;;;;;;4983746;28;20046;-68
2021/07/30 01:31:49;;;;;;;8.00;2.47;;;16.50;99.90;;;;;;4983537;28;20034;-64
2021/07/30 01:34:15;;;;;;;6.10;2.50;;;16.50;99.90;;;;;;4983754;28;20088;-67
2021/07/30 01:36:42;;;;;;;7.15;2.63;;;16.50;99.90;;;;;;4984172;28;20149;-67
2021/07/30 01:39:09;;;;;;;3.78;2.10;;;16.50;99.90;;;;;;4984049;28;20042;-66
2021/07/30 01:41:36;;;;;;;6.38;2.70;;;16.60;99.90;;;;;;4983264;28;20038;-66
2021/07/30 01:44:03;;;;;;;5.22;2.30;;;16.60;99.90;;;;;;4981323;28;20046;-66
2021/07/30 01:46:30;;;;;;;9.77;3.72;;;16.50;99.90;;;;;;4983240;28;20077;-67
2021/07/30 01:48:57;;;;;;;4.10;3.13;;;16.50;99.90;;;;;;4981980;28;20524;-67
2021/07/30 01:51:24;;;;;;;4.40;4.00;;;16.50;99.90;;;;;;4984282;28;20050;-68
2021/07/30 01:53:51;;;;;;;7.78;2.88;;;16.60;99.90;;;;;;4983721;28;20105;-65
2021/07/30 01:56:18;;;;;;;4.70;2.10;;;16.50;99.90;;;;;;4982826;28;20480;-65
2021/07/30 01:58:44;;;;;;;3.92;2.15;;;16.50;99.90;;;;;;4983211;28;20476;-65
2021/07/30 02:01:11;;;;;;;8.18;3.33;;;16.50;99.90;;;;;;4985859;28;20043;-65
2021/07/30 02:03:39;;;;;;;5.68;2.03;;;16.60;99.90;;;;;;4982250;28;20100;-67
2021/07/30 02:06:07;;;;;;;10.05;2.47;;;16.60;99.90;;;;;;4984387;28;20439;-64
2021/07/30 02:08:37;;;;;;;2.05;1.90;;;16.50;99.90;;;;;;4979188;28;20130;-65
2021/07/30 02:11:08;;;;;;;10.55;3.35;;;16.50;99.90;;;;;;4984594;28;20089;-70
2021/07/30 02:16:21;;;;;;;5.13;1.63;;;16.60;99.90;;;;;;4979946;28;20212;-67
2021/07/30 02:18:49;;;;;;;5.40;2.00;;;16.50;99.90;;;;;;4980439;28;20050;-67
2021/07/30 02:21:16;;;;;;;9.30;2.55;;;16.60;99.90;;;;;;4978399;28;20101;-68
2021/07/30 02:23:44;;;;;;;2.42;1.77;;;16.60;99.90;;;;;;4983264;28;20073;-64
2021/07/30 02:26:12;;;;;;;8.60;2.75;;;16.60;99.90;;;;;;4977769;28;20047;-67
2021/07/30 02:28:38;;;;;;;2.55;1.73;;;16.60;99.90;;;;;;4983361;28;20030;-65
2021/07/30 02:31:06;;;;;;;6.00;2.72;;;16.60;99.90;;;;;;4981878;28;20120;-73
2021/07/30 02:33:33;;;;;;;4.32;2.55;;;16.60;99.90;;;;;;4982632;28;20472;-67
2021/07/30 02:36:00;;;;;;;4.28;1.65;;;16.70;99.90;;;;;;4977627;28;21291;-67
2021/07/30 02:38:26;;;;;;;5.53;2.03;;;16.70;99.90;;;;;;4983318;28;20888;-67
2021/07/30 02:40:53;;;;;;;5.32;3.97;;;16.60;99.90;;;;;;4981892;28;20111;-66
2021/07/30 02:43:20;;;;;;;5.88;2.30;;;16.60;99.90;;;;;;4982887;28;20046;-68
2021/07/30 02:45:48;;;;;;;8.68;2.90;;;16.60;99.90;;;;;;4982348;28;20050;-65
2021/07/30 02:48:15;;;;;;;5.78;2.25;;;16.60;99.90;;;;;;4981812;28;20057;-65
2021/07/30 02:50:41;;;;;;;4.15;1.98;;;16.60;99.90;;;;;;4982896;28;20076;-67
2021/07/30 02:53:08;;;;;;;8.43;3.33;;;16.60;99.90;;;;;;4982533;28;20042;-66
2021/07/30 02:55:35;;;;;;;5.03;2.45;;;16.60;99.90;;;;;;4982033;28;20109;-68
2021/07/30 02:58:02;;;;;;;5.07;3.50;;;16.70;99.90;;;;;;4980243;28;20098;-67
2021/07/30 03:00:29;;;;;;;10.68;3.47;;;16.70;99.90;;;;;;4980056;28;20050;-65
2021/07/30 03:02:56;;;;;;;5.82;2.00;;;16.70;99.90;;;;;;4983446;28;20435;-74
2021/07/30 03:05:23;;;;;;;2.97;1.90;;;16.80;99.90;;;;;;4978536;28;20042;-67
2021/07/30 03:07:50;;;;;;;4.50;2.25;;;16.80;99.90;;;;;;4981142;28;20499;-67
2021/07/30 03:10:17;;;;;;;2.53;1.95;;;16.70;99.90;;;;;;4977591;28;20058;-66
2021/07/30 03:12:44;;;;;;;4.80;2.85;;;16.80;99.90;;;;;;4979613;28;20132;-68
2021/07/30 03:15:11;;;;;;;4.03;1.77;;;16.70;99.90;;;;;;4980623;28;20444;-67
2021/07/30 03:17:38;;;;;;;3.67;1.85;;;16.70;99.90;;;;;;4981252;28;20046;-67
2021/07/30 03:20:06;;;;;;;8.27;2.35;;;16.70;99.90;;;;;;4968488;28;20046;-73
2021/07/30 03:22:33;;;;;;;6.05;2.08;;;16.60;99.90;;;;;;4981563;28;20108;-67
2021/07/30 03:25:01;;;;;;;7.85;2.92;;;16.60;99.90;;;;;;4977883;28;20112;-65
2021/07/30 03:27:28;;;;;;;3.22;1.95;;;16.60;99.90;;;;;;4980827;28;20046;-68
2021/07/30 03:29:55;;;;;;;6.03;3.33;;;16.60;99.90;;;;;;4977951;28;20101;-68
2021/07/30 03:32:22;;;;;;;3.65;2.10;;;16.60;99.90;;;;;;4975516;28;20101;-68
2021/07/30 03:34:49;;;;;;;5.57;2.67;;;16.70;99.90;;;;;;4980993;28;20108;-65
2021/07/30 03:37:17;;;;;;;13.13;3.28;;;16.70;99.90;;;;;;4980455;28;20061;-70
2021/07/30 03:39:43;;;;;;;3.30;2.38;;;16.60;99.90;;;;;;4980855;28;20153;-65
2021/07/30 03:42:10;;;;;;;5.28;2.45;;;16.70;99.90;;;;;;4979839;28;20046;-68
2021/07/30 03:44:37;;;;;;;6.55;2.75;;;16.70;99.90;;;;;;4980366;28;20054;-65
2021/07/30 03:47:05;;;;;;;3.75;3.28;;;16.70;99.90;;;;;;4980203;28;20392;-69
2021/07/30 03:49:32;;;;;;;5.35;2.63;;;16.70;99.90;;;;;;4982335;28;20519;-65
2021/07/30 03:51:58;;;;;;;7.53;3.65;;;16.70;99.90;;;;;;4982938;28;20496;-66
2021/07/30 03:54:25;;;;;;;4.35;2.40;;;16.70;99.90;;;;;;4985703;28;20043;-65
2021/07/30 03:56:52;;;;;;;9.02;2.67;;;16.70;99.90;;;;;;4985087;28;20435;-71
2021/07/30 03:59:19;;;;;;;6.00;2.50;;;16.70;99.90;;;;;;4985772;28;20112;-65
2021/07/30 04:01:49;;;;;;;11.32;2.83;;;16.70;99.90;;;;;;4986656;28;20608;-65
2021/07/30 04:04:16;;;;;;;4.68;1.80;;;16.70;99.90;;;;;;4985552;28;20811;-65
2021/07/30 04:06:44;;;;;;;7.13;2.30;;;16.70;99.90;;;;;;4986933;28;20620;-67
2021/07/30 04:09:12;;;;;;;8.48;2.60;;;16.70;99.90;;;;;;4969714;28;20064;-65
2021/07/30 04:11:39;;;;;;;4.30;2.15;;;16.80;99.90;;;;;;4977083;28;20038;-65
2021/07/30 04:14:07;;;;;;;5.60;2.85;;;16.70;99.90;;;;;;4984214;28;20232;-66
2021/07/30 04:16:35;;;;;;;5.07;2.67;;;16.80;99.90;;;;;;4985963;28;20077;-71
2021/07/30 04:19:03;;;;;;;5.50;2.00;;;16.80;99.90;;;;;;4983137;28;20051;-66
2021/07/30 04:21:30;;;;;;;4.53;2.30;;;16.70;99.90;;;;;;4985184;28;20050;-67
2021/07/30 04:24:00;;;;;;;7.78;2.28;;;16.70;99.90;;;;;;4982226;28;20046;-73
2021/07/30 04:26:27;;;;;;;11.63;2.38;;;16.70;99.90;;;;;;4984027;28;20162;-65
2021/07/30 04:28:54;;;;;;;6.97;3.63;;;16.70;99.90;;;;;;4985220;28;20141;-66
2021/07/30 04:31:21;;;;;;;5.25;2.65;;;16.70;99.90;;;;;;4981715;28;20686;-65
2021/07/30 04:33:48;;;;;;;4.78;2.50;;;16.80;99.90;;;;;;4985250;28;20042;-73
2021/07/30 04:36:16;;;;;;;3.97;1.92;;;16.80;99.90;;;;;;4983427;28;20046;-66
2021/07/30 04:38:45;;;;;;;5.30;2.47;;;16.80;99.90;;;;;;4986249;28;20045;-65
2021/07/30 04:41:12;;;;;;;10.25;2.85;;;16.80;99.90;;;;;;4980875;28;20050;-68
2021/07/30 04:43:39;;;;;;;7.30;4.82;;;16.90;99.90;;;;;;4986405;28;20060;-68
2021/07/30 04:46:14;;;;;;;7.47;2.45;;;16.90;99.90;;;;;;4983411;28;20058;-66
2021/07/30 04:48:41;;;;;;;4.55;2.17;;;17.00;99.90;;;;;;4981960;28;20543;-66
2021/07/30 04:51:08;;;;;;;4.88;2.10;;;17.10;99.90;;;;;;4982870;28;20512;-68
2021/07/30 04:53:35;;;;;;;9.82;4.30;;;17.00;99.90;;;;;;4982778;28;20054;-70
2021/07/30 04:56:02;;;;;;;38.40;4.90;;;17.00;99.90;;;;;;4983615;28;20140;-65
2021/07/30 04:58:30;;;;;;;4.25;2.88;;;17.00;99.90;;;;;;4984148;28;20058;-67
2021/07/30 05:00:57;;;;;;;5.15;2.25;;;16.90;99.90;;;;;;4984467;28;20046;-66
2021/07/30 05:03:24;;;;;;;9.20;2.53;;;16.90;99.90;;;;;;4984330;28;20042;-66
2021/07/30 05:05:51;;;;;;;7.97;3.25;;;16.90;99.90;;;;;;4982980;28;20054;-64
2021/07/30 05:08:18;;;;;;;11.15;3.75;;;16.90;99.90;;;;;;4980234;28;20180;-64
2021/07/30 05:10:49;;;;;;;8.38;3.08;;;16.80;99.90;;;;;;4985384;28;20034;-65
2021/07/30 05:13:16;;;;;;;5.05;2.75;;;16.80;99.90;;;;;;4983812;28;20054;-72
2021/07/30 05:15:43;;;;;;;7.63;3.47;;;16.80;99.90;;;;;;4984997;28;20101;-68
2021/07/30 05:18:10;;;;;;;8.13;3.72;;;16.90;99.90;;;;;;4982210;28;20051;-65
2021/07/30 05:20:38;;;;;;;4.28;2.38;;;16.90;99.90;;;;;;4986416;28;20050;-65
2021/07/30 05:23:05;;;;;;;3.92;2.28;;;17.00;99.90;;;;;;4983006;28;20093;-67
2021/07/30 05:25:32;;;;;;;19.60;3.03;;;16.90;99.90;;;;;;4986024;28;20042;-66
2021/07/30 05:27:59;;;;;;;7.82;2.78;;;17.00;99.90;;;;;;4982844;28;20047;-69
2021/07/30 05:30:26;;;;;;;6.50;2.85;;;17.00;99.90;;;;;;4983429;28;20054;-66
2021/07/30 05:32:53;;;;;;;9.23;3.58;;;17.00;99.90;;;;;;4970439;28;20043;-70
2021/07/30 05:35:20;;;;;;;4.18;2.63;;;17.00;99.90;;;;;;4974497;28;20055;-66
2021/07/30 05:37:47;;;;;;;8.00;3.20;;;17.10;99.90;;;;;;4985836;28;20054;-64
2021/07/30 05:40:14;;;;;;;5.53;3.40;;;17.10;99.90;;;;;;4965729;28;20083;-67
2021/07/30 05:42:41;;;;;;;7.53;3.13;;;17.10;99.90;;;;;;4984202;28;20101;-68
2021/07/30 05:45:08;;;;;;;2.65;1.67;;;17.20;99.90;;;;;;4984735;28;20058;-65
2021/07/30 05:47:35;;;;;;;3.22;2.00;;;17.30;99.90;;;;;;4982204;28;20385;-66
2021/07/30 05:50:02;;;;;;;4.32;2.58;;;17.40;99.90;;;;;;4984798;28;20430;-68
2021/07/30 05:52:30;;;;;;;4.80;2.17;;;17.50;99.90;;;;;;4982062;28;20046;-67
2021/07/30 05:54:57;;;;;;;9.35;2.80;;;17.50;99.90;;;;;;4984863;28;20046;-67
2021/07/30 05:57:24;;;;;;;1.88;1.73;;;17.60;99.90;;;;;;4984063;28;20135;-67
2021/07/30 05:59:51;;;;;;;6.88;3.28;;;17.60;99.90;;;;;;4985732;28;20705;-66
2021/07/30 06:02:18;;;;;;;4.28;2.38;;;17.70;99.90;;;;;;4980376;28;20655;-66
2021/07/30 06:04:46;;;;;;;3.45;1.83;;;17.70;99.90;;;;;;4985743;28;20068;-66
2021/07/30 06:07:13;;;;;;;5.75;1.92;;;17.80;99.90;;;;;;4983375;28;20050;-65
2021/07/30 06:09:40;;;;;;;6.25;2.05;;;17.80;99.90;;;;;;4984462;28;20641;-66
2021/07/30 06:12:07;;;;;;;6.95;1.90;;;17.80;99.90;;;;;;4981457;28;20101;-66
2021/07/30 06:14:33;;;;;;;2.25;1.27;;;17.80;99.90;;;;;;4967625;28;20404;-66
2021/07/30 06:17:02;;;;;;;1.63;1.52;;;17.80;99.90;;;;;;4981463;28;20376;-70
2021/07/30 06:19:29;;;;;;;3.70;1.75;;;17.80;99.90;;;;;;4983557;28;20050;-68
2021/07/30 06:21:57;;;;;;;3.60;1.83;;;17.80;99.90;;;;;;4982802;28;20038;-69
2021/07/30 06:24:24;;;;;;;5.60;3.03;;;17.80;99.90;;;;;;4981512;28;20477;-71
2021/07/30 06:26:51;;;;;;;5.43;2.45;;;17.80;99.90;;;;;;4986102;28;20046;-65
2021/07/30 06:29:18;;;;;;;6.88;2.50;;;17.90;99.90;;;;;;4983188;28;20415;-69
2021/07/30 06:31:45;;;;;;;5.70;1.67;;;18.00;99.90;;;;;;4984182;28;20471;-66
2021/07/30 06:34:12;;;;;;;2.95;1.58;;;18.10;99.90;;;;;;4979307;28;20124;-65
2021/07/30 06:36:39;;;;;;;5.90;2.13;;;18.20;99.90;;;;;;4983488;28;20093;-66
2021/07/30 06:39:06;;;;;;;2.80;1.92;;;18.10;99.90;;;;;;4982144;28;20094;-65
2021/07/30 06:41:37;;;;;;;8.27;1.50;;;17.40;99.90;;;;;;4977770;28;20113;-66
2021/07/30 06:44:04;;;;;;;3.72;1.67;;;17.10;99.90;;;;;;4980698;28;20125;-67
2021/07/30 06:46:33;;;;;;;7.10;2.20;;;17.00;99.90;;;;;;4982030;28;20038;-65
2021/07/30 06:49:00;;;;;;;2.17;1.98;;;17.10;99.90;;;;;;4980321;28;20058;-66
2021/07/30 06:51:26;;;;;;;3.30;1.40;;;17.10;99.90;;;;;;4980352;28;20078;-68
2021/07/30 06:53:54;;;;;;;3.90;1.73;;;17.10;99.90;;;;;;4983486;28;20092;-65
2021/07/30 06:56:20;;;;;;;4.03;1.77;;;17.10;99.90;;;;;;4982034;28;20202;-64
2021/07/30 06:58:48;;;;;;;2.15;1.95;;;17.20;99.90;;;;;;4983394;28;20089;-66
2021/07/30 07:01:15;;;;;;;4.63;1.73;;;17.30;99.90;;;;;;4998375;28;20065;-66
2021/07/30 07:03:42;;;;;;;8.27;2.58;;;17.30;99.90;;;;;;4983934;28;20073;-66
2021/07/30 07:06:16;;;;;;;4.28;2.30;;;17.20;99.90;;;;;;4978042;28;20052;-64
2021/07/30 07:08:44;;;;;;;8.27;1.92;;;17.30;99.90;;;;;;4984490;28;20472;-66
2021/07/30 07:11:11;;;;;;;3.70;1.67;;;17.40;99.90;;;;;;4981420;28;20096;-67
2021/07/30 07:13:38;;;;;;;2.33;1.90;;;17.50;99.90;;;;;;4982825;28;20050;-69
2021/07/30 07:16:05;;;;;;;7.63;1.95;;;17.60;99.90;;;;;;4981084;28;20083;-65
2021/07/30 07:18:32;;;;;;;4.47;1.98;;;17.80;99.90;;;;;;4978623;28;20097;-65
2021/07/30 07:21:00;;;;;;;4.43;1.70;;;17.80;99.90;;;;;;4983207;28;20097;-67
2021/07/30 07:23:27;;;;;;;2.35;1.30;;;17.90;99.90;;;;;;4982102;28;20073;-65
2021/07/30 07:25:54;;;;;;;3.72;1.90;;;17.90;99.90;;;;;;4982506;28;20030;-67
2021/07/30 07:28:21;;;;;;;1.70;1.60;;;17.90;99.90;;;;;;4979840;28;20108;-68
2021/07/30 07:30:49;;;;;;;2.22;1.75;;;17.90;99.90;;;;;;4982653;28;20046;-64
2021/07/30 07:33:16;;;;;;;5.70;1.60;;;18.00;99.90;;;;;;4982489;28;20062;-65
2021/07/30 07:35:43;;;;;;;2.35;1.35;;;18.00;99.90;;;;;;4968609;28;20054;-67
2021/07/30 07:38:11;;;;;;;7.75;1.80;;;18.00;99.90;;;;;;4977381;28;20093;-65
2021/07/30 07:40:38;;;;;;;2.95;1.30;;;18.00;99.90;;;;;;4983063;28;20574;-65
2021/07/30 07:43:05;;;;;;;3.25;1.50;;;18.00;99.90;;;;;;4982987;28;20046;-67
2021/07/30 07:45:32;;;;;;;2.50;1.75;;;17.90;99.90;;;;;;4980649;28;20742;-65
2021/07/30 07:48:00;;;;;;;2.17;1.27;;;17.90;99.90;;;;;;4982943;28;20050;-66
2021/07/30 07:50:27;;;;;;;4.43;1.73;;;18.00;99.90;;;;;;4973937;28;20050;-64
2021/07/30 07:52:54;;;;;;;3.08;2.70;;;18.20;99.90;;;;;;4968540;28;20511;-68
2021/07/30 07:55:21;;;;;;;5.30;2.00;;;18.30;99.90;;;;;;4982736;28;20137;-67
2021/07/30 07:57:48;;;;;;;2.70;2.20;;;18.30;99.90;;;;;;4981866;28;20089;-70
2021/07/30 08:00:15;;;;;;;2.08;1.65;;;18.20;99.90;;;;;;4979934;28;20112;-65
2021/07/30 08:02:42;;;;;;;3.30;1.30;;;18.20;99.90;;;;;;4968216;28;20038;-67
2021/07/30 08:05:10;;;;;;;1.67;1.52;;;18.20;99.90;;;;;;4975901;28;20458;-68
2021/07/30 08:07:37;;;;;;;4.43;2.25;;;18.20;99.90;;;;;;4974401;28;20065;-68
2021/07/30 08:10:04;;;;;;;2.17;1.83;;;18.20;99.90;;;;;;4983183;28;20096;-68
2021/07/30 08:12:32;;;;;;;4.20;1.92;;;18.30;99.90;;;;;;4979047;28;20109;-67
2021/07/30 08:15:00;;;;;;;4.03;2.35;;;18.30;99.90;;;;;;4982100;28;20150;-64
2021/07/30 08:17:27;;;;;;;3.88;1.27;;;18.30;99.90;;;;;;4977986;28;20047;-65
2021/07/30 08:19:54;;;;;;;2.50;1.40;;;18.30;99.90;;;;;;4976044;28;20116;-69
2021/07/30 08:22:21;;;;;;;2.95;1.58;;;18.50;99.90;;;;;;4965574;28;20083;-66
2021/07/30 08:24:48;;;;;;;2.58;1.20;;;18.50;99.90;;;;;;4982697;28;20042;-65
2021/07/30 08:27:15;;;;;;;1.88;1.17;;;18.60;99.90;;;;;;4980745;28;20102;-68
2021/07/30 08:29:42;;;;;;;4.45;1.20;;;18.70;99.90;;;;;;4979766;28;20097;-67
2021/07/30 08:32:09;;;;;;;3.22;1.27;;;18.70;99.90;;;;;;4977184;28;20070;-66
2021/07/30 08:34:40;;;;;;;4.55;1.70;;;18.70;99.90;;;;;;4983004;28;20042;-67
2021/07/30 08:37:07;;;;;;;6.80;1.48;;;18.70;99.90;;;;;;4981085;28;20066;-64
2021/07/30 08:39:35;;;;;;;2.92;0.88;;;18.60;99.90;;;;;;4985358;28;20068;-68
2021/07/30 08:42:04;;;;;;;2.17;1.85;;;18.60;99.90;;;;;;4981431;28;20039;-68
2021/07/30 08:44:32;;;;;;;1.98;1.20;;;18.60;99.90;;;;;;4985581;28;20184;-69
2021/07/30 08:46:59;;;;;;;4.93;1.38;;;18.60;99.90;;;;;;4983544;28;20061;-67
2021/07/30 08:49:26;;;;;;;4.18;1.23;;;18.60;99.90;;;;;;4986289;28;20050;-66
2021/07/30 08:52:11;;;;;;;4.05;1.80;;;18.50;99.90;;;;;;4983080;28;20102;-67
2021/07/30 08:54:40;;;;;;;6.47;2.38;;;18.60;99.90;;;;;;4978113;28;20047;-64
2021/07/30 08:57:10;;;;;;;3.92;1.33;;;18.50;99.90;;;;;;4974166;28;20141;-65
2021/07/30 08:59:39;;;;;;;1.10;0.90;;;18.40;99.90;;;;;;4974816;28;20437;-70
2021/07/30 09:02:07;;;;;;;3.10;1.50;;;18.50;99.90;;;;;;4980196;28;20046;-65
2021/07/30 09:04:35;;;;;;;2.13;1.40;;;18.60;99.90;;;;;;4983445;28;20077;-67
2021/07/30 09:07:02;;;;;;;5.03;1.83;;;18.80;99.90;;;;;;4982922;28;20550;-70
2021/07/30 09:09:31;;;;;;;2.25;1.10;;;19.00;99.90;;;;;;4983361;28;20503;-66
2021/07/30 09:12:01;;;;;;;4.00;1.48;;;19.10;99.90;;;;;;4984032;28;20097;-64
2021/07/30 09:14:32;;;;;;;3.65;1.52;;;19.10;99.90;;;;;;4983601;28;20427;-67
2021/07/30 09:17:00;;;;;;;3.40;1.65;;;19.30;99.90;;;;;;4984653;28;20049;-68
2021/07/30 09:19:27;;;;;;;1.20;1.10;;;19.50;99.90;;;;;;4985488;28;20077;-65
2021/07/30 09:22:09;;;;;;;1.27;1.02;;;19.40;99.90;;;;;;4979574;28;20046;-67
2021/07/30 09:24:43;;;;;;;3.13;1.50;;;19.40;99.90;;;;;;4985323;28;20050;-66
2021/07/30 09:27:11;;;;;;;2.78;1.23;;;19.50;99.90;;;;;;4981312;28;20046;-65
2021/07/30 09:29:39;;;;;;;3.03;0.95;;;19.50;99.90;;;;;;4985915;28;20383;-65
2021/07/30 09:32:16;;;;;;;2.78;1.30;;;19.50;99.90;;;;;;4982629;28;20452;-65
2021/07/30 09:34:46;;;;;;;2.45;1.45;;;19.60;99.90;;;;;;4982676;28;20043;-65
2021/07/30 09:37:23;;;;;;;2.22;1.30;;;19.80;99.90;;;;;;4973362;28;20456;-65
2021/07/30 09:39:52;;;;;;;1.25;1.00;;;19.80;99.90;;;;;;4966716;28;20105;-66
2021/07/30 09:42:36;;;;;;;1.10;0.72;;;19.60;99.90;;;;;;4034753;28;10002858;-65
2021/07/30 09:45:11;;;;;;;4.38;2.70;;;19.30;99.90;;;;;;1715727;28;10001667;-70
2021/07/30 09:47:50;;;;;;;2.88;1.80;;;19.10;99.90;;;;;;4986168;28;20500;-65
2021/07/30 09:50:20;;;;;;;3.57;1.50;;;18.90;99.90;;;;;;4980163;28;20085;-64
2021/07/30 09:52:51;;;;;;;2.80;1.63;;;18.70;99.90;;;;;;4984056;28;20268;-67
2021/07/30 09:55:21;;;;;;;3.90;1.40;;;18.50;99.90;;;;;;4985066;28;20046;-68
2021/07/30 09:57:51;;;;;;;2.92;2.08;;;18.30;99.90;;;;;;4981365;28;20046;-67
2021/07/30 10:00:20;;;;;;;5.47;2.15;;;18.20;99.90;;;;;;4975705;28;20062;-66
2021/07/30 10:02:48;;;;;;;7.28;3.05;;;18.00;99.90;;;;;;4984111;28;20157;-64
2021/07/30 10:05:17;;;;;;;11.82;3.63;;;17.50;99.90;;;;;;4983256;28;20145;-64
2021/07/30 10:07:44;;;;;;;11.57;2.47;;;17.30;99.90;;;;;;4984747;28;20065;-65
2021/07/30 10:10:28;;;;;;;6.25;2.25;;;17.20;99.90;;;;;;4979937;28;20046;-66
2021/07/30 10:12:56;;;;;;;5.57;3.00;;;17.00;99.90;;;;;;4985541;28;20125;-67
2021/07/30 10:15:23;;;;;;;10.60;3.65;;;16.90;99.90;;;;;;4981850;28;20073;-65
2021/07/30 10:17:56;;;;;;;11.32;3.92;;;16.80;99.90;;;;;;4981255;28;20054;-64
2021/07/30 10:20:26;;;;;;;8.88;3.13;;;16.80;99.90;;;;;;4980173;28;20042;-65
2021/07/30 10:23:15;;;;;;;7.53;3.45;;;16.80;99.90;;;;;;4983604;28;20105;-65
2021/07/30 10:25:52;;;;;;;12.38;3.97;;;16.60;99.90;;;;;;4984174;28;20460;-66
2021/07/30 10:28:18;;;;;;;6.18;2.72;;;16.60;99.90;;;;;;4971095;28;20054;-66
2021/07/30 10:31:06;;;;;;;6.05;2.75;;;16.60;99.90;;;;;;4985621;28;20039;-64
2021/07/30 10:33:40;;;;;;;4.10;3.15;;;16.70;99.90;;;;;;4981436;28;20120;-66
2021/07/30 10:36:12;;;;;;;4.30;2.50;;;16.70;99.90;;;;;;4979072;28;20076;-66
2021/07/30 10:38:40;;;;;;;6.40;3.55;;;16.70;99.90;;;;;;4980144;28;20149;-64
2021/07/30 10:41:07;;;;;;;9.18;2.80;;;16.70;99.90;;;;;;4978504;28;20050;-65
2021/07/30 10:44:00;;;;;;;5.50;2.72;;;16.70;99.90;;;;;;4973502;28;20058;-65
2021/07/30 10:46:28;;;;;;;6.70;3.83;;;16.80;99.90;;;;;;4979625;28;20082;-65
2021/07/30 10:48:55;;;;;;;4.85;2.83;;;16.90;99.90;;;;;;4981644;28;20476;-64
2021/07/30 10:51:24;;;;;;;5.78;3.00;;;17.10;99.90;;;;;;4983184;28;20069;-66
2021/07/30 10:53:51;;;;;;;3.85;2.95;;;17.20;99.90;;;;;;4983700;28;20054;-65
2021/07/30 10:56:18;;;;;;;12.88;3.25;;;17.20;99.90;;;;;;4982246;28;20046;-64
2021/07/30 10:58:45;;;;;;;4.70;2.88;;;17.10;99.90;;;;;;4985076;28;20057;-65
2021/07/30 11:01:21;;;;;;;9.73;3.58;;;17.00;99.90;;;;;;4981338;28;20034;-65
2021/07/30 11:03:51;;;;;;;11.88;3.38;;;16.80;99.90;;;;;;4982671;28;20077;-65
2021/07/30 11:06:21;;;;;;;5.97;2.65;;;16.70;99.90;;;;;;4978871;28;20793;-65
2021/07/30 11:09:00;;;;;;;6.68;2.42;;;16.70;99.90;;;;;;4982406;28;20120;-65
2021/07/30 11:11:42;;;;;;;4.15;2.80;;;16.70;99.90;;;;;;4984688;28;20046;-65
2021/07/30 11:14:25;;;;;;;6.43;4.13;;;16.70;99.90;;;;;;4978124;28;20416;-65
2021/07/30 11:16:57;;;;;;;7.32;3.20;;;16.70;99.90;;;;;;4975830;28;20126;-65
2021/07/30 11:19:35;;;;;;;5.32;3.15;;;16.70;99.90;;;;;;4981380;28;20043;-67
2021/07/30 11:22:04;;;;;;;5.55;3.33;;;16.70;99.90;;;;;;4982392;28;20043;-67
2021/07/30 11:24:36;;;;;;;3.58;3.22;;;16.70;99.90;;;;;;4980863;28;20494;-67
2021/07/30 11:27:06;;;;;;;3.45;2.92;;;16.60;99.90;;;;;;4981981;28;20066;-66
2021/07/30 11:29:33;;;;;;;10.57;4.40;;;16.60;99.90;;;;;;4983181;28;20058;-66
2021/07/30 11:32:05;;;;;;;8.15;3.03;;;16.40;99.90;;;;;;4979414;28;20070;-68
2021/07/30 11:34:34;;;;;;;1.55;1.45;;;16.40;99.90;;;;;;4981200;28;20048;-65
2021/07/30 11:37:03;;;;;;;2.88;0.98;;;16.40;99.90;;;;;;4978585;28;20117;-68
2021/07/30 11:39:35;;;;;;;4.93;2.13;;;16.40;99.90;;;;;;4983005;28;20419;-67
2021/07/30 11:42:02;;;;;;;10.73;4.70;;;16.40;99.90;;;;;;4983804;28;20038;-65
2021/07/30 11:44:40;;;;;;;7.05;4.07;;;16.60;99.90;;;;;;4975203;28;20130;-66
2021/07/30 11:47:06;;;;;;;10.77;5.22;;;16.80;99.90;;;;;;4965419;28;20042;-64
2021/07/30 11:49:36;;;;;;;4.93;3.05;;;17.00;99.90;;;;;;4982348;28;20065;-66
2021/07/30 11:52:06;;;;;;;11.35;3.55;;;17.10;99.90;;;;;;4981264;28;20054;-65
2021/07/30 11:54:34;;;;;;;9.98;3.75;;;17.20;99.90;;;;;;4979520;28;20407;-64
2021/07/30 11:57:02;;;;;;;8.30;4.40;;;17.20;99.90;;;;;;4980853;28;20169;-66
2021/07/30 11:59:46;;;;;;;17.95;5.90;;;17.30;99.90;;;;;;4983109;28;20488;-68
2021/07/30 12:02:15;;;;;;;7.28;4.88;;;17.10;99.90;;;;;;4979904;28;20334;-65
2021/07/30 12:04:53;;;;;;;9.13;3.75;;;17.00;99.90;;;;;;4981696;28;20050;-65
2021/07/30 12:07:27;;;;;;;8.60;2.55;;;16.90;99.90;;;;;;4983166;28;20149;-66
2021/07/30 12:09:58;;;;;;;7.60;3.15;;;16.90;99.90;;;;;;4980066;28;20046;-66
2021/07/30 12:12:31;;;;;;;7.25;3.67;;;16.90;99.90;;;;;;4984111;28;20558;-66
2021/07/30 12:14:59;;;;;;;6.00;2.15;;;16.90;99.90;;;;;;4984031;28;20145;-66
2021/07/30 12:17:31;;;;;;;8.15;2.72;;;16.90;99.90;;;;;;4987260;28;20558;-68
2021/07/30 12:20:04;;;;;;;5.10;2.65;;;16.80;99.90;;;;;;4982971;28;20058;-64
2021/07/30 12:22:34;;;;;;;10.90;3.35;;;16.80;99.90;;;;;;4985811;28;20046;-64
2021/07/30 12:25:01;;;;;;;9.18;3.15;;;16.80;99.90;;;;;;4983752;28;20073;-66
2021/07/30 12:27:28;;;;;;;7.38;3.25;;;16.70;99.90;;;;;;4989013;28;20046;-65
2021/07/30 12:29:56;;;;;;;6.90;3.80;;;16.70;99.90;;;;;;4983874;28;21408;-65
2021/07/30 12:32:36;;;;;;;11.95;4.70;;;16.70;99.90;;;;;;4983812;28;20043;-64
2021/07/30 12:35:11;;;;;;;11.00;4.65;;;16.60;99.90;;;;;;4986875;28;20688;-65
2021/07/30 12:37:58;;;;;;;8.52;3.95;;;16.50;99.90;;;;;;4981010;28;20395;-66
2021/07/30 12:40:25;;;;;;;14.43;4.35;;;16.50;99.90;;;;;;4983632;28;20416;-66
2021/07/30 12:43:12;;;;;;;10.02;4.63;;;16.40;99.90;;;;;;4986822;28;20101;-65
2021/07/30 12:45:49;;;;;;;8.27;3.63;;;16.40;99.90;;;;;;4982698;28;20412;-64
2021/07/30 12:48:20;;;;;;;14.68;5.95;;;16.40;99.90;;;;;;4984106;28;20054;-65
2021/07/30 12:50:49;;;;;;;15.68;5.13;;;16.40;99.90;;;;;;4985396;28;20047;-66
2021/07/30 12:53:19;;;;;;;10.25;3.08;;;16.40;99.90;;;;;;4984302;28;20042;-66
2021/07/30 12:55:55;;;;;;;5.25;3.25;;;16.60;99.90;;;;;;4985312;28;20100;-65